Time;durP1;ratioP1;P1;durP2;ratioP2;P2;SDS_P1;SDS_P2;PMS_P1;PMS_P2;Temp;Humidity;BMP_temperature;BMP_pressure;BME280_temperature;BME280_humidity;BME280_pressure;Samples;Min_cycle;Max_cycle;Signal;HPM_P1;HPM_P2
2022/02/23 00:01:46;;;;;;;15.13;4.67;;;6.10;99.90;;;;;;5076113;28;20858;-64
2022/02/23 00:04:13;;;;;;;12.93;4.63;;;6.10;99.90;;;;;;5076967;28;20492;-64
2022/02/23 00:06:40;;;;;;;14.23;4.70;;;6.10;99.90;;;;;;5076429;28;20507;-64
2022/02/23 00:09:07;;;;;;;19.70;4.93;;;6.00;99.90;;;;;;5077336;28;20515;-64
2022/02/23 00:11:34;;;;;;;12.43;4.93;;;5.90;1.00;;;;;;5076897;28;20461;-64
2022/02/23 00:14:01;;;;;;;17.67;5.30;;;6.00;99.90;;;;;;5076688;28;20487;-64
2022/02/23 00:16:30;;;;;;;17.53;5.47;;;5.90;1.00;;;;;;5076559;28;20460;-64
2022/02/23 00:18:57;;;;;;;16.50;4.47;;;5.90;1.00;;;;;;5077002;28;20511;-64
2022/02/23 00:21:24;;;;;;;15.33;5.50;;;5.80;1.00;;;;;;5076331;28;20464;-64
2022/02/23 00:23:51;;;;;;;15.40;5.20;;;5.80;1.00;;;;;;5076651;28;20530;-64
2022/02/23 00:26:21;;;;;;;12.50;4.23;;;5.80;99.90;;;;;;5076622;28;20469;-64
2022/02/23 00:28:48;;;;;;;15.93;5.03;;;5.70;99.90;;;;;;5076871;28;20465;-64
2022/02/23 00:31:15;;;;;;;12.43;4.73;;;5.70;1.00;;;;;;5076702;28;20882;-64
2022/02/23 00:33:43;;;;;;;15.50;4.80;;;5.60;99.90;;;;;;5076371;28;20465;-64
2022/02/23 00:36:10;;;;;;;13.03;5.13;;;5.60;1.00;;;;;;5076111;28;20461;-64
2022/02/23 00:38:37;;;;;;;14.00;5.00;;;5.60;99.90;;;;;;5076593;28;20469;-64
2022/02/23 00:41:04;;;;;;;15.40;4.53;;;5.50;96.40;;;;;;5076726;28;20542;-64
2022/02/23 00:43:31;;;;;;;13.50;6.10;;;5.60;99.90;;;;;;5076856;28;20466;-64
2022/02/23 00:45:58;;;;;;;15.37;5.70;;;5.50;99.90;;;;;;5076182;28;20538;-64
2022/02/23 00:48:25;;;;;;;25.37;5.60;;;5.50;51.90;;;;;;5075525;28;20465;-64
2022/02/23 00:50:54;;;;;;;13.70;5.07;;;5.50;99.90;;;;;;5076361;28;20461;-64
2022/02/23 00:53:21;;;;;;;14.43;4.33;;;5.50;1.00;;;;;;5076625;28;20465;-64
2022/02/23 00:55:48;;;;;;;12.70;5.10;;;5.30;99.90;;;;;;5076564;28;20749;-64
2022/02/23 00:58:16;;;;;;;13.40;6.73;;;5.30;1.00;;;;;;5075831;28;20512;-64
2022/02/23 01:00:43;;;;;;;15.20;5.33;;;5.30;19.00;;;;;;5076745;28;20469;-64
2022/02/23 01:03:10;;;;;;;12.73;4.70;;;5.20;1.00;;;;;;5076226;28;20813;-64
2022/02/23 01:05:37;;;;;;;14.20;4.80;;;5.20;1.00;;;;;;5076557;28;20488;-64
2022/02/23 01:08:05;;;;;;;18.63;5.07;;;5.20;1.00;;;;;;5075859;28;20814;-64
2022/02/23 01:10:33;;;;;;;17.30;4.90;;;5.10;1.00;;;;;;5076508;28;20806;-64
2022/02/23 01:13:00;;;;;;;18.40;4.43;;;5.10;99.90;;;;;;5076965;28;20546;-64
2022/02/23 01:15:28;;;;;;;15.97;5.20;;;5.10;1.00;;;;;;5080413;28;20797;-64
2022/02/23 01:17:55;;;;;;;17.30;5.27;;;5.10;1.00;;;;;;5079689;28;20461;-64
2022/02/23 01:20:22;;;;;;;18.50;5.20;;;5.10;99.90;;;;;;5071200;28;20522;-64
2022/02/23 01:22:51;;;;;;;15.27;4.50;;;5.10;99.90;;;;;;5079848;28;20486;-64
2022/02/23 01:25:20;;;;;;;15.60;5.30;;;5.10;99.90;;;;;;5080157;28;20626;-64
2022/02/23 01:27:47;;;;;;;14.03;5.87;;;5.10;1.00;;;;;;5079693;28;20522;-64
2022/02/23 01:30:14;;;;;;;12.80;4.47;;;5.10;6.40;;;;;;5079490;28;20473;-64
2022/02/23 01:32:41;;;;;;;15.03;5.10;;;5.00;99.90;;;;;;5079687;28;20522;-64
2022/02/23 01:35:08;;;;;;;13.10;5.03;;;4.90;99.90;;;;;;5080077;28;20507;-64
2022/02/23 01:37:35;;;;;;;15.80;5.70;;;4.80;14.90;;;;;;5080018;28;20879;-64
2022/02/23 01:40:03;;;;;;;12.50;4.63;;;4.80;1.00;;;;;;5078898;28;20473;-64
2022/02/23 01:42:31;;;;;;;15.67;5.10;;;4.80;1.00;;;;;;5079622;28;20514;-64
2022/02/23 01:44:58;;;;;;;15.13;5.10;;;4.70;99.90;;;;;;5079311;28;20493;-63
2022/02/23 01:47:26;;;;;;;15.27;5.40;;;4.70;1.00;;;;;;5079694;28;20465;-63
2022/02/23 01:49:53;;;;;;;22.00;5.87;;;4.70;1.00;;;;;;5078623;28;20465;-63
2022/02/23 01:52:22;;;;;;;12.77;4.87;;;4.70;1.00;;;;;;5079806;28;20551;-63
2022/02/23 01:54:49;;;;;;;15.13;5.90;;;4.70;25.30;;;;;;5079215;28;20461;-63
2022/02/23 01:57:16;;;;;;;16.13;4.57;;;4.70;1.00;;;;;;5079530;28;20465;-63
2022/02/23 01:59:44;;;;;;;12.60;4.63;;;4.70;99.90;;;;;;5078409;28;20466;-63
2022/02/23 02:02:12;;;;;;;15.50;7.00;;;4.60;38.90;;;;;;5078802;28;20461;-63
2022/02/23 02:04:39;;;;;;;13.67;5.33;;;4.60;99.90;;;;;;5079111;28;20493;-63
2022/02/23 02:07:07;;;;;;;18.27;5.07;;;4.60;99.90;;;;;;5079402;28;20518;-63
2022/02/23 02:09:34;;;;;;;10.53;5.00;;;4.60;99.90;;;;;;5078745;28;20549;-63
2022/02/23 02:12:01;;;;;;;15.80;5.23;;;4.60;99.90;;;;;;5078286;28;20469;-63
2022/02/23 02:14:28;;;;;;;18.80;5.50;;;4.50;1.00;;;;;;5078601;28;20488;-63
2022/02/23 02:16:56;;;;;;;10.87;5.10;;;4.50;1.00;;;;;;5079101;28;20461;-63
2022/02/23 02:19:23;;;;;;;9.57;4.43;;;4.50;1.00;;;;;;5078721;28;20477;-63
2022/02/23 02:21:57;;;;;;;21.07;5.20;;;4.50;1.00;;;;;;5078725;28;20530;-63
2022/02/23 02:24:26;;;;;;;18.73;5.63;;;4.50;43.10;;;;;;5071894;28;20519;-63
2022/02/23 02:26:53;;;;;;;15.43;4.47;;;4.50;99.90;;;;;;5079097;28;20488;-63
2022/02/23 02:29:21;;;;;;;20.43;6.40;;;4.50;99.90;;;;;;5078179;28;20440;-63
2022/02/23 02:31:48;;;;;;;15.47;5.27;;;4.40;73.30;;;;;;5078743;28;20457;-63
2022/02/23 02:34:16;;;;;;;16.93;5.07;;;4.30;99.90;;;;;;5077711;28;20465;-63
2022/02/23 02:36:43;;;;;;;15.33;4.60;;;4.30;99.90;;;;;;5078872;28;20462;-63
2022/02/23 02:39:13;;;;;;;15.60;4.70;;;4.30;99.90;;;;;;5078191;28;20465;-63
2022/02/23 02:41:40;;;;;;;19.17;5.00;;;4.30;99.90;;;;;;5078490;28;20462;-63
2022/02/23 02:44:07;;;;;;;13.37;5.03;;;4.30;99.90;;;;;;5078133;28;20551;-63
2022/02/23 02:46:35;;;;;;;17.10;4.23;;;4.30;99.90;;;;;;5078116;28;20557;-63
2022/02/23 02:49:02;;;;;;;13.83;4.53;;;4.30;99.90;;;;;;5078007;28;20465;-63
2022/02/23 02:51:29;;;;;;;11.87;4.70;;;4.20;99.90;;;;;;5078021;28;20522;-63
2022/02/23 02:53:56;;;;;;;15.53;5.00;;;4.30;99.90;;;;;;5077958;28;20844;-63
2022/02/23 02:56:25;;;;;;;13.07;4.30;;;4.30;99.90;;;;;;5078380;28;20944;-63
2022/02/23 02:58:53;;;;;;;15.53;4.77;;;4.30;99.90;;;;;;5078593;28;20484;-63
2022/02/23 03:01:21;;;;;;;18.00;4.60;;;4.20;99.90;;;;;;5078068;28;20495;-63
2022/02/23 03:03:48;;;;;;;13.67;4.93;;;4.10;99.90;;;;;;5078167;28;20755;-63
2022/02/23 03:06:15;;;;;;;14.50;5.70;;;4.10;99.90;;;;;;5078117;28;21007;-63
2022/02/23 03:08:43;;;;;;;16.07;5.20;;;4.10;99.90;;;;;;5077825;28;20466;-63
2022/02/23 03:11:10;;;;;;;14.73;4.50;;;4.10;99.90;;;;;;5077513;28;20469;-63
2022/02/23 03:13:41;;;;;;;13.47;4.20;;;4.00;99.90;;;;;;5077603;28;20542;-62
2022/02/23 03:16:13;;;;;;;13.77;4.47;;;4.00;99.90;;;;;;5077518;28;20898;-63
2022/02/23 03:18:41;;;;;;;16.10;5.20;;;3.90;99.90;;;;;;5077834;28;20465;-63
2022/02/23 03:21:12;;;;;;;14.90;5.13;;;3.90;99.90;;;;;;5076847;28;20491;-63
2022/02/23 03:23:40;;;;;;;12.90;4.43;;;4.00;99.90;;;;;;5077434;28;20465;-63
2022/02/23 03:26:09;;;;;;;20.73;5.57;;;3.90;99.90;;;;;;5077658;28;20555;-63
2022/02/23 03:28:39;;;;;;;19.23;4.47;;;3.90;99.90;;;;;;5077732;28;20457;-63
2022/02/23 03:31:07;;;;;;;19.30;5.27;;;3.90;99.90;;;;;;5077285;28;20897;-63
2022/02/23 03:33:34;;;;;;;26.60;5.20;;;3.90;99.90;;;;;;5077345;28;20878;-63
2022/02/23 03:36:02;;;;;;;11.80;4.97;;;3.80;99.90;;;;;;5076159;28;20485;-63
2022/02/23 03:38:31;;;;;;;12.53;5.00;;;3.80;99.90;;;;;;5078085;28;20532;-63
2022/02/23 03:40:58;;;;;;;13.00;4.70;;;3.80;99.90;;;;;;5077508;28;20458;-63
2022/02/23 03:43:25;;;;;;;11.20;4.63;;;3.90;99.90;;;;;;5077440;28;20464;-63
2022/02/23 03:45:53;;;;;;;17.77;5.20;;;3.80;99.90;;;;;;5077021;28;20486;-63
2022/02/23 03:48:20;;;;;;;20.80;5.77;;;3.80;99.90;;;;;;5077510;28;20461;-63
2022/02/23 03:50:47;;;;;;;17.57;5.70;;;3.80;99.90;;;;;;5077726;28;20462;-63
2022/02/23 03:53:14;;;;;;;14.40;5.07;;;3.70;99.90;;;;;;5076514;28;20541;-63
2022/02/23 03:55:41;;;;;;;13.80;4.27;;;3.70;99.90;;;;;;5077012;28;20457;-63
2022/02/23 03:58:09;;;;;;;14.07;6.60;;;3.70;99.90;;;;;;5076870;28;20472;-63
2022/02/23 04:00:36;;;;;;;14.33;4.80;;;3.60;99.90;;;;;;5077231;28;20519;-62
2022/02/23 04:03:05;;;;;;;13.90;5.20;;;3.60;99.90;;;;;;5076896;28;20450;-63
2022/02/23 04:05:32;;;;;;;13.97;5.03;;;3.60;99.90;;;;;;5077182;28;20507;-63
2022/02/23 04:07:59;;;;;;;18.90;5.57;;;3.60;99.90;;;;;;5076350;28;20469;-63
2022/02/23 04:10:26;;;;;;;21.40;6.27;;;3.50;99.90;;;;;;5076898;28;20466;-62
2022/02/23 04:12:53;;;;;;;20.60;6.27;;;3.50;99.90;;;;;;5076266;28;20490;-63
2022/02/23 04:15:21;;;;;;;24.87;5.80;;;3.50;99.90;;;;;;5077091;28;20461;-62
2022/02/23 04:17:48;;;;;;;22.80;7.60;;;3.50;99.90;;;;;;5076637;28;20461;-63
2022/02/23 04:20:16;;;;;;;12.93;5.73;;;3.50;99.90;;;;;;5076556;28;20548;-63
2022/02/23 04:22:44;;;;;;;18.10;6.63;;;3.40;99.90;;;;;;5076940;28;20542;-63
2022/02/23 04:25:12;;;;;;;18.23;6.57;;;3.40;99.90;;;;;;5076430;28;20890;-63
2022/02/23 04:27:40;;;;;;;18.53;6.50;;;3.30;99.90;;;;;;5076699;28;20469;-63
2022/02/23 04:30:08;;;;;;;20.37;6.40;;;3.30;99.90;;;;;;5076557;28;20453;-63
2022/02/23 04:32:36;;;;;;;16.20;6.00;;;3.30;99.90;;;;;;5077085;28;20906;-64
2022/02/23 04:35:04;;;;;;;16.97;6.07;;;3.20;99.90;;;;;;5076292;28;20465;-64
2022/02/23 04:37:32;;;;;;;23.20;5.70;;;3.30;99.90;;;;;;5077000;28;20457;-64
2022/02/23 04:40:05;;;;;;;17.90;6.63;;;3.20;99.90;;;;;;5076148;28;20810;-64
2022/02/23 04:42:33;;;;;;;16.77;6.27;;;3.20;99.90;;;;;;5077021;28;20472;-64
2022/02/23 04:45:01;;;;;;;22.93;6.07;;;3.20;99.90;;;;;;5076374;28;20469;-64
2022/02/23 04:47:29;;;;;;;19.53;6.53;;;3.20;99.90;;;;;;5079359;28;20465;-63
2022/02/23 04:49:58;;;;;;;12.97;5.60;;;3.10;99.90;;;;;;5080135;28;20461;-63
2022/02/23 04:52:25;;;;;;;21.20;6.30;;;3.10;99.90;;;;;;5080646;28;20461;-63
2022/02/23 04:54:54;;;;;;;18.47;5.60;;;3.20;99.90;;;;;;5080050;28;20436;-63
2022/02/23 04:57:22;;;;;;;22.33;5.60;;;3.10;99.90;;;;;;5080798;28;20473;-63
2022/02/23 04:59:53;;;;;;;17.97;5.13;;;3.10;99.90;;;;;;5080341;28;20461;-63
2022/02/23 05:02:20;;;;;;;12.20;5.37;;;3.10;99.90;;;;;;5080729;28;20506;-63
2022/02/23 05:04:48;;;;;;;10.63;5.03;;;3.10;99.90;;;;;;5080465;28;20460;-63
2022/02/23 05:07:15;;;;;;;13.80;6.03;;;3.00;99.90;;;;;;5079952;28;20806;-63
2022/02/23 05:09:43;;;;;;;18.53;5.77;;;2.90;99.90;;;;;;5080219;28;20500;-63
2022/02/23 05:12:11;;;;;;;15.10;5.20;;;2.80;99.90;;;;;;5080536;28;20465;-63
2022/02/23 05:14:40;;;;;;;11.30;5.60;;;2.70;99.90;;;;;;5080069;28;20489;-63
2022/02/23 05:17:08;;;;;;;12.03;5.77;;;2.60;99.90;;;;;;5079593;28;20469;-63
2022/02/23 05:19:35;;;;;;;21.07;5.47;;;2.60;99.90;;;;;;5080072;28;20963;-63
2022/02/23 05:22:03;;;;;;;18.07;7.80;;;2.50;99.90;;;;;;5080089;28;20878;-63
2022/02/23 05:24:30;;;;;;;19.23;6.70;;;2.50;99.90;;;;;;5080352;28;20497;-63
2022/02/23 05:26:59;;;;;;;17.43;7.03;;;2.50;99.90;;;;;;5079461;28;20500;-63
2022/02/23 05:29:27;;;;;;;15.77;6.37;;;2.50;99.90;;;;;;5079677;28;20469;-63
2022/02/23 05:31:56;;;;;;;18.20;6.20;;;2.50;99.90;;;;;;5078958;28;20523;-62
2022/02/23 05:34:24;;;;;;;18.87;6.60;;;2.60;99.90;;;;;;5080034;28;20457;-62
2022/02/23 05:36:52;;;;;;;9.97;5.80;;;2.60;99.90;;;;;;5079713;28;20469;-62
2022/02/23 05:39:21;;;;;;;16.83;5.70;;;2.50;99.90;;;;;;5078552;28;20464;-62
2022/02/23 05:41:50;;;;;;;18.20;6.53;;;2.40;99.90;;;;;;5079215;28;20469;-62
2022/02/23 05:44:17;;;;;;;20.33;7.40;;;2.30;99.90;;;;;;5079752;28;20457;-61
2022/02/23 05:46:46;;;;;;;17.37;5.37;;;2.20;99.90;;;;;;5079330;28;20912;-62
2022/02/23 05:49:13;;;;;;;11.77;5.40;;;2.20;99.90;;;;;;5080065;28;20507;-62
2022/02/23 05:51:42;;;;;;;14.17;6.17;;;2.20;99.90;;;;;;5079133;28;20465;-62
2022/02/23 05:54:09;;;;;;;19.90;6.13;;;2.20;99.90;;;;;;5079471;28;20547;-62
2022/02/23 05:56:36;;;;;;;12.67;5.57;;;2.10;99.90;;;;;;5078004;28;20573;-62
2022/02/23 05:59:04;;;;;;;19.17;5.87;;;2.10;99.90;;;;;;5077273;28;20523;-61
2022/02/23 06:01:31;;;;;;;11.97;5.77;;;2.10;99.90;;;;;;5079018;28;21143;-61
2022/02/23 06:03:59;;;;;;;18.13;6.30;;;2.10;99.90;;;;;;5078262;28;20892;-59
2022/02/23 06:06:27;;;;;;;13.90;5.80;;;2.10;99.90;;;;;;5078704;28;20493;-61
2022/02/23 06:08:54;;;;;;;13.57;5.90;;;2.10;99.90;;;;;;5079434;28;20905;-62
2022/02/23 06:11:21;;;;;;;11.87;5.50;;;2.10;99.90;;;;;;5079600;28;20909;-61
2022/02/23 06:13:51;;;;;;;11.30;6.43;;;2.00;99.90;;;;;;5078003;28;20489;-61
2022/02/23 06:16:22;;;;;;;18.00;6.87;;;2.10;99.90;;;;;;5079232;28;20454;-61
2022/02/23 06:18:50;;;;;;;19.10;7.80;;;1.90;99.90;;;;;;5078620;28;20469;-60
2022/02/23 06:21:18;;;;;;;16.90;9.50;;;1.90;99.90;;;;;;5078914;28;20466;-59
2022/02/23 06:23:45;;;;;;;18.40;8.27;;;1.70;99.90;;;;;;5078335;28;20890;-58
2022/02/23 06:26:12;;;;;;;18.60;7.30;;;1.70;99.90;;;;;;5078718;28;20559;-60
2022/02/23 06:28:40;;;;;;;20.90;6.90;;;1.70;99.90;;;;;;5078225;28;20448;-61
2022/02/23 06:31:07;;;;;;;14.07;6.67;;;1.70;99.90;;;;;;5078912;28;20461;-61
2022/02/23 06:33:36;;;;;;;15.17;6.60;;;1.80;99.90;;;;;;5079127;28;20496;-61
2022/02/23 06:36:04;;;;;;;15.50;6.60;;;1.90;99.90;;;;;;5078749;28;20461;-61
2022/02/23 06:38:32;;;;;;;12.60;6.20;;;1.80;99.90;;;;;;5078332;28;20472;-61
2022/02/23 06:41:00;;;;;;;14.87;6.80;;;1.80;99.90;;;;;;5078893;28;20465;-61
2022/02/23 06:43:27;;;;;;;17.50;7.03;;;1.70;99.90;;;;;;5078592;28;20473;-61
2022/02/23 06:45:54;;;;;;;18.20;7.30;;;1.80;99.90;;;;;;5078405;28;20519;-61
2022/02/23 06:48:22;;;;;;;16.27;7.10;;;1.80;99.90;;;;;;5078262;28;20465;-61
2022/02/23 06:50:50;;;;;;;24.07;7.90;;;1.70;99.90;;;;;;5078653;28;20458;-61
2022/02/23 06:53:17;;;;;;;15.40;8.23;;;1.80;99.90;;;;;;5078336;28;20465;-61
2022/02/23 06:55:47;;;;;;;9.63;6.00;;;1.80;99.90;;;;;;5077989;28;20531;-61
2022/02/23 06:58:15;;;;;;;15.10;7.40;;;1.90;99.90;;;;;;5077835;28;20468;-60
2022/02/23 07:00:42;;;;;;;17.43;7.07;;;1.90;99.90;;;;;;5076848;28;20466;-61
2022/02/23 07:03:09;;;;;;;21.30;7.90;;;1.90;99.90;;;;;;5077963;28;20461;-61
2022/02/23 07:05:37;;;;;;;31.87;14.90;;;1.90;99.90;;;;;;5077807;28;20461;-61
2022/02/23 07:08:07;;;;;;;30.10;15.57;;;2.00;99.90;;;;;;5078028;28;20493;-61
2022/02/23 07:10:35;;;;;;;19.67;8.10;;;2.00;99.90;;;;;;5077708;28;20484;-61
2022/02/23 07:13:07;;;;;;;14.70;8.27;;;2.00;99.90;;;;;;5078125;28;20797;-61
2022/02/23 07:15:36;;;;;;;17.97;7.60;;;2.10;99.90;;;;;;5071843;28;20436;-61
2022/02/23 07:18:03;;;;;;;14.90;8.27;;;2.10;99.90;;;;;;5078222;28;20858;-61
2022/02/23 07:20:30;;;;;;;16.30;8.83;;;2.20;99.90;;;;;;5076487;28;20465;-61
2022/02/23 07:22:57;;;;;;;14.07;7.80;;;2.20;99.90;;;;;;5077931;28;20469;-61
2022/02/23 07:25:25;;;;;;;20.30;8.10;;;2.20;99.90;;;;;;5077755;28;20469;-61
2022/02/23 07:27:52;;;;;;;16.13;7.60;;;2.30;99.90;;;;;;5076063;28;20489;-61
2022/02/23 07:30:20;;;;;;;13.80;8.83;;;2.30;99.90;;;;;;5075221;28;20469;-61
2022/02/23 07:32:48;;;;;;;21.20;9.80;;;2.40;99.90;;;;;;5076614;28;20435;-61
2022/02/23 07:35:15;;;;;;;21.43;10.10;;;2.40;99.90;;;;;;5077044;28;20926;-61
2022/02/23 07:37:43;;;;;;;16.80;9.60;;;2.50;99.90;;;;;;5075965;28;20471;-62
2022/02/23 07:40:15;;;;;;;14.70;8.73;;;2.50;99.90;;;;;;5075362;28;20462;-62
2022/02/23 07:42:42;;;;;;;21.60;10.50;;;2.60;99.90;;;;;;5076188;28;20487;-62
2022/02/23 07:45:12;;;;;;;21.33;8.87;;;2.70;99.90;;;;;;5076094;28;20465;-62
2022/02/23 07:47:44;;;;;;;20.67;8.40;;;2.80;99.90;;;;;;5075510;28;20496;-62
2022/02/23 07:50:15;;;;;;;16.53;7.73;;;2.90;99.90;;;;;;5074060;28;20556;-61
2022/02/23 07:52:43;;;;;;;20.30;8.90;;;3.10;99.90;;;;;;5075663;28;20519;-60
2022/02/23 07:55:10;;;;;;;17.40;8.43;;;3.30;99.90;;;;;;5076064;28;20841;-60
2022/02/23 07:57:41;;;;;;;17.83;8.37;;;3.50;99.90;;;;;;5075339;28;20534;-61
2022/02/23 08:00:09;;;;;;;15.70;8.37;;;3.70;99.90;;;;;;5073528;28;20538;-59
2022/02/23 08:02:37;;;;;;;18.43;8.13;;;4.00;99.90;;;;;;5075759;28;20560;-61
2022/02/23 08:05:06;;;;;;;13.83;7.17;;;4.20;99.90;;;;;;5076409;28;20894;-61
2022/02/23 08:07:34;;;;;;;12.70;8.27;;;4.50;99.90;;;;;;5075175;28;20504;-62
2022/02/23 08:10:01;;;;;;;14.13;8.00;;;4.80;99.90;;;;;;5075309;28;20466;-61
2022/02/23 08:12:28;;;;;;;16.43;7.03;;;5.10;99.90;;;;;;5074650;28;20470;-62
2022/02/23 08:14:56;;;;;;;16.60;7.63;;;5.30;99.90;;;;;;5074769;28;20941;-62
2022/02/23 08:20:12;;;;;;;14.60;6.77;;;5.90;99.90;;;;;;5074570;28;20425;-63
2022/02/23 08:22:39;;;;;;;18.93;9.93;;;6.10;99.90;;;;;;5069283;28;20469;-63
2022/02/23 08:25:07;;;;;;;21.70;7.20;;;6.50;99.90;;;;;;5077010;28;20800;-63
2022/02/23 08:27:36;;;;;;;17.97;7.67;;;6.60;99.90;;;;;;5076211;28;20944;-63
2022/02/23 08:30:05;;;;;;;13.17;6.67;;;6.80;99.90;;;;;;5076874;28;20461;-63
2022/02/23 08:32:35;;;;;;;18.07;7.63;;;7.20;99.90;;;;;;5074999;28;20457;-63
2022/02/23 08:35:02;;;;;;;12.23;6.87;;;7.30;99.90;;;;;;5076823;28;20460;-63
2022/02/23 08:37:30;;;;;;;14.80;6.00;;;7.50;99.90;;;;;;5075854;28;20898;-63
2022/02/23 08:39:59;;;;;;;24.70;7.40;;;7.40;99.90;;;;;;5076690;28;20468;-63
2022/02/23 08:42:26;;;;;;;27.03;6.47;;;7.60;99.90;;;;;;5076323;28;20473;-63
2022/02/23 08:44:53;;;;;;;17.33;6.00;;;7.70;99.90;;;;;;5076815;28;20469;-64
2022/02/23 08:47:23;;;;;;;17.77;6.57;;;7.80;99.90;;;;;;5076336;28;20482;-63
2022/02/23 08:49:50;;;;;;;14.43;6.00;;;7.80;1.00;;;;;;5076349;28;20497;-64
2022/02/23 08:52:17;;;;;;;11.13;5.87;;;7.90;1.00;;;;;;5076159;28;20510;-64
2022/02/23 08:54:46;;;;;;;11.10;5.70;;;7.90;99.90;;;;;;5076632;28;20756;-64
2022/02/23 08:57:13;;;;;;;9.97;6.00;;;8.10;99.90;;;;;;5075875;28;20472;-64
2022/02/23 08:59:40;;;;;;;14.57;5.87;;;8.20;99.90;;;;;;5074324;28;20461;-64
2022/02/23 09:02:07;;;;;;;17.60;6.07;;;8.30;99.90;;;;;;5074500;28;20468;-64
2022/02/23 09:04:35;;;;;;;14.20;6.00;;;8.40;99.90;;;;;;5074874;28;20518;-64
2022/02/23 09:07:05;;;;;;;12.50;6.53;;;8.50;92.70;;;;;;5075658;28;20508;-65
2022/02/23 09:09:32;;;;;;;16.23;6.03;;;8.80;99.90;;;;;;5074641;28;20518;-65
2022/02/23 09:12:06;;;;;;;16.97;6.30;;;9.00;32.70;;;;;;5076644;28;20462;-65
2022/02/23 09:14:33;;;;;;;11.23;5.50;;;9.10;6.00;;;;;;5059860;28;20484;-65
2022/02/23 09:17:06;;;;;;;19.10;6.63;;;8.90;1.00;;;;;;5076176;28;20453;-65
2022/02/23 09:19:33;;;;;;;14.30;7.20;;;8.70;1.00;;;;;;5075987;28;20931;-65
2022/02/23 09:22:00;;;;;;;15.03;6.23;;;8.70;1.00;;;;;;5076495;28;20463;-65
2022/02/23 09:24:32;;;;;;;14.73;5.30;;;8.70;1.00;;;;;;5075944;28;20465;-65
2022/02/23 09:27:03;;;;;;;20.20;8.10;;;9.00;25.50;;;;;;5076038;28;20493;-65
2022/02/23 09:29:34;;;;;;;14.87;6.03;;;9.30;1.00;;;;;;5075660;28;20551;-65
2022/02/23 09:32:01;;;;;;;13.17;5.40;;;9.50;1.00;;;;;;5076435;28;20514;-65
2022/02/23 09:34:29;;;;;;;15.73;5.73;;;9.90;1.00;;;;;;5077847;28;20443;-65
2022/02/23 09:36:56;;;;;;;16.63;5.40;;;10.20;1.00;;;;;;5079613;28;20457;-65
2022/02/23 09:39:25;;;;;;;13.93;6.03;;;10.10;1.00;;;;;;5079320;28;20469;-64
2022/02/23 09:41:55;;;;;;;11.90;5.80;;;10.10;1.00;;;;;;5080115;28;20469;-64
2022/02/23 09:44:27;;;;;;;16.00;5.67;;;10.20;1.00;;;;;;5079829;28;20466;-64
2022/02/23 09:46:54;;;;;;;15.17;5.80;;;10.30;1.00;;;;;;5080043;28;20465;-64
2022/02/23 09:49:21;;;;;;;14.20;5.40;;;10.20;1.00;;;;;;5079248;28;20522;-64
2022/02/23 09:51:48;;;;;;;13.23;6.07;;;10.20;1.00;;;;;;5079135;28;20476;-64
2022/02/23 09:54:18;;;;;;;9.97;4.87;;;10.30;1.00;;;;;;5079169;28;20461;-64
2022/02/23 09:56:46;;;;;;;22.00;6.43;;;10.20;1.00;;;;;;5079389;28;20720;-63
2022/02/23 09:59:13;;;;;;;16.77;5.17;;;10.60;1.00;;;;;;5077993;28;20488;-63
2022/02/23 10:01:45;;;;;;;13.00;6.20;;;10.90;1.00;;;;;;5079510;28;20476;-64
2022/02/23 10:04:13;;;;;;;15.23;5.33;;;11.10;1.00;;;;;;5079009;28;20465;-63
2022/02/23 10:06:42;;;;;;;15.20;5.70;;;11.30;1.00;;;;;;5079167;28;20461;-63
2022/02/23 10:09:16;;;;;;;14.00;5.80;;;11.30;1.00;;;;;;5077143;28;20496;-64
2022/02/23 10:11:47;;;;;;;16.90;6.03;;;11.10;1.00;;;;;;5078843;28;20465;-63
2022/02/23 10:14:14;;;;;;;11.23;4.90;;;11.20;1.00;;;;;;5078119;28;20500;-63
2022/02/23 10:16:46;;;;;;;11.50;5.83;;;11.30;1.00;;;;;;5078858;28;20551;-63
2022/02/23 10:19:16;;;;;;;12.20;5.70;;;11.40;1.00;;;;;;5078508;28;20928;-63
2022/02/23 10:21:52;;;;;;;15.80;6.00;;;11.60;1.00;;;;;;5077985;28;20457;-63
2022/02/23 10:24:25;;;;;;;10.47;5.80;;;11.60;1.00;;;;;;5078949;28;20464;-63
2022/02/23 10:26:57;;;;;;;14.63;5.80;;;11.50;1.00;;;;;;5077657;28;20530;-61
2022/02/23 10:29:32;;;;;;;9.67;5.63;;;11.10;1.00;;;;;;5078667;28;20882;-63
2022/02/23 10:32:01;;;;;;;13.63;6.20;;;11.50;1.00;;;;;;5077435;28;20461;-62
2022/02/23 10:34:29;;;;;;;16.87;6.97;;;11.70;1.00;;;;;;5078646;28;20523;-62
2022/02/23 10:37:01;;;;;;;18.90;6.57;;;11.90;1.00;;;;;;5078366;28;20917;-63
2022/02/23 10:39:42;;;;;;;12.80;6.43;;;12.10;1.00;;;;;;5078728;28;20465;-62
2022/02/23 10:42:12;;;;;;;13.47;6.17;;;12.20;1.00;;;;;;5078198;28;20774;-62
2022/02/23 10:44:44;;;;;;;15.90;7.47;;;11.80;1.00;;;;;;5077778;28;20467;-62
2022/02/23 10:47:29;;;;;;;11.33;4.93;;;12.00;1.00;;;;;;5078085;28;20898;-62
2022/02/23 10:50:05;;;;;;;12.90;5.60;;;12.10;1.00;;;;;;5078518;28;20466;-62
2022/02/23 10:52:33;;;;;;;10.07;4.80;;;12.10;1.00;;;;;;5078178;28;20464;-62
2022/02/23 10:55:19;;;;;;;11.27;4.50;;;12.50;1.00;;;;;;5078363;28;20795;-62
2022/02/23 10:57:48;;;;;;;12.40;6.40;;;12.60;1.00;;;;;;5077904;28;20894;-61
2022/02/23 11:00:19;;;;;;;13.80;5.80;;;12.60;1.00;;;;;;5078150;28;20458;-62
2022/02/23 11:02:48;;;;;;;11.33;5.17;;;12.10;1.00;;;;;;5077339;28;20461;-61
2022/02/23 11:05:17;;;;;;;9.93;4.83;;;12.30;1.00;;;;;;5071842;28;20832;-61
2022/02/23 11:07:44;;;;;;;11.67;4.97;;;12.50;1.00;;;;;;5077825;28;20547;-61
2022/02/23 11:10:13;;;;;;;11.97;5.57;;;12.60;1.00;;;;;;5078052;28;20461;-61
2022/02/23 11:12:44;;;;;;;9.83;5.20;;;12.60;1.00;;;;;;5077418;28;20465;-61
2022/02/23 11:15:13;;;;;;;12.53;5.30;;;12.70;1.00;;;;;;5077276;28;20555;-61
2022/02/23 11:17:40;;;;;;;9.93;4.27;;;13.10;1.00;;;;;;5076991;28;20492;-61
2022/02/23 11:20:14;;;;;;;12.77;5.40;;;13.30;1.00;;;;;;5077404;28;20519;-61
2022/02/23 11:22:49;;;;;;;10.60;4.90;;;13.30;1.00;;;;;;5077405;28;20897;-61
2022/02/23 11:25:16;;;;;;;9.73;4.13;;;12.80;1.00;;;;;;5076967;28;20464;-60
2022/02/23 11:27:48;;;;;;;16.20;10.70;;;12.50;1.00;;;;;;5077803;28;20489;-60
2022/02/23 11:30:19;;;;;;;9.83;3.47;;;12.80;1.00;;;;;;5077515;28;20514;-60
2022/02/23 11:32:46;;;;;;;6.77;3.47;;;12.80;1.00;;;;;;5077601;28;20469;-61
2022/02/23 11:35:38;;;;;;;8.27;3.60;;;12.60;1.00;;;;;;5076077;28;20519;-60
2022/02/23 11:38:05;;;;;;;8.57;3.70;;;12.40;1.00;;;;;;5074944;28;20895;-58
2022/02/23 11:40:46;;;;;;;14.70;4.23;;;12.70;1.00;;;;;;5077001;28;20461;-60
2022/02/23 11:43:27;;;;;;;7.53;4.50;;;12.90;1.00;;;;;;5077134;28;20443;-60
2022/02/23 11:49:15;;;;;;;12.73;3.90;;;13.40;1.00;;;;;;5070469;28;20533;-57
2022/02/23 11:52:02;;;;;;;6.30;3.60;;;13.40;1.00;;;;;;5076594;28;20526;-56
2022/02/23 11:54:55;;;;;;;10.43;3.53;;;13.60;1.00;;;;;;5076477;28;20999;-56
2022/02/23 12:01:01;;;;;;;7.33;3.90;;;13.30;1.00;;;;;;5075808;28;20475;-58
2022/02/23 12:03:30;;;;;;;11.10;3.83;;;13.50;1.00;;;;;;5075742;28;20526;-59
2022/02/23 12:05:59;;;;;;;11.60;4.00;;;13.70;1.00;;;;;;5075130;28;20465;-60
2022/02/23 12:08:44;;;;;;;10.53;3.97;;;13.80;1.00;;;;;;5071184;28;20598;-54
2022/02/23 12:11:50;;;;;;;12.20;3.97;;;14.00;1.00;;;;;;5075293;28;20849;-60
2022/02/23 12:14:20;;;;;;;9.40;6.00;;;14.30;1.00;;;;;;5075256;28;20790;-59
2022/02/23 12:16:51;;;;;;;8.07;3.30;;;14.20;1.00;;;;;;5075877;28;20461;-57
2022/02/23 12:19:39;;;;;;;6.30;2.93;;;14.30;1.00;;;;;;5076459;28;20480;-59
2022/02/23 12:22:09;;;;;;;6.77;3.10;;;14.30;1.00;;;;;;5076557;28;20925;-53
2022/02/23 12:24:47;;;;;;;10.03;3.60;;;14.40;1.00;;;;;;5076543;28;20468;-59
2022/02/23 12:27:21;;;;;;;6.90;3.03;;;14.20;1.00;;;;;;5076165;28;20471;-58
2022/02/23 12:29:49;;;;;;;8.40;3.70;;;14.20;1.00;;;;;;5076632;28;20492;-58
2022/02/23 12:32:16;;;;;;;9.30;3.57;;;14.00;1.00;;;;;;5074220;28;20542;-58
2022/02/23 12:34:43;;;;;;;8.00;4.17;;;13.70;1.00;;;;;;5074570;28;20794;-59
2022/02/23 12:37:14;;;;;;;6.27;2.90;;;13.70;1.00;;;;;;5075130;28;20902;-59
2022/02/23 12:39:45;;;;;;;9.20;3.70;;;13.80;1.00;;;;;;5074815;28;20457;-53
2022/02/23 12:42:14;;;;;;;7.27;3.17;;;14.20;1.00;;;;;;5075786;28;20473;-58
2022/02/23 12:44:47;;;;;;;4.97;2.30;;;14.00;1.00;;;;;;5075153;28;20471;-57
2022/02/23 12:47:15;;;;;;;7.23;3.67;;;14.10;1.00;;;;;;5075823;28;20548;-58
2022/02/23 12:49:42;;;;;;;3.63;2.80;;;14.00;1.00;;;;;;5075335;28;20954;-57
2022/02/23 12:52:10;;;;;;;7.80;3.10;;;14.30;1.00;;;;;;5075940;28;20536;-58
2022/02/23 12:54:39;;;;;;;9.33;3.17;;;14.20;1.00;;;;;;5076188;28;20465;-57
2022/02/23 12:57:08;;;;;;;6.40;3.33;;;14.10;1.00;;;;;;5076618;28;20457;-56
2022/02/23 12:59:39;;;;;;;2.90;2.57;;;13.80;1.00;;;;;;5076128;28;20527;-58
2022/02/23 13:02:08;;;;;;;5.53;3.23;;;14.00;1.00;;;;;;5076629;28;20464;-55
2022/02/23 13:04:41;;;;;;;5.97;3.40;;;13.80;1.00;;;;;;5075889;28;20461;-59
2022/02/23 13:07:16;;;;;;;5.17;2.77;;;14.00;1.00;;;;;;5075905;28;20461;-56